Observations for Trim Patrick St
| Time | AQI | Temp °C | Hum % | Pres Pa | CO μg/m³ | H₂S μg/m³ | NO μg/m³ | NO₂ μg/m³ | O₃ μg/m³ | SO₂ μg/m³ | PM1 μg/m³ | PM2.5 μg/m³ | PM10 μg/m³ |
|---|---|---|---|---|---|---|---|---|---|---|---|---|---|
| Friday 31 July 2026 | |||||||||||||
| 04:36 | 2 | 10.5 | 79 | 38,460 | 0.36 | 2.01 | 4.34 | 17.38 | 31.26 | 0 | 4.57 | 8.07 | 8.88 |
| 04:34 | 2 | 10.5 | 79 | 38,460 | 0.37 | 1.6 | 4.46 | 18.41 | 43.88 | 0 | 5.43 | 9.51 | 10.47 |
| 04:33 | 2 | 10.5 | 77 | 38,460 | 0.37 | 1.67 | 4.41 | 17.4 | 28.38 | 0 | 3.71 | 8.21 | 9.03 |
| 04:32 | 2 | 10.5 | 78 | 38,460 | 0.38 | 1.7 | 4.38 | 17.21 | 35.54 | 0 | 8 | 11.73 | 12.91 |
| 04:31 | 2 | 10.5 | 78 | 38,460 | 0.39 | 1.67 | 4.41 | 17.42 | 32.36 | 0 | 5.43 | 9.62 | 10.58 |
| 04:30 | 2 | 10.5 | 78 | 38,460 | 0.38 | 0.59 | 4.45 | 17.9 | 33.05 | 0 | 6.29 | 8.91 | 9.8 |
| 04:29 | 2 | 10.6 | 79 | 38,460 | 0.39 | 0.83 | 4.38 | 14.49 | 27.19 | 0 | 4.57 | 8.81 | 9.69 |
| 04:28 | 2 | 10.6 | 78 | 38,460 | 0.38 | 1.16 | 4.43 | 19.48 | 36.3 | 0 | 6.29 | 10.25 | 11.27 |
| 04:27 | 2 | 10.6 | 79 | 38,460 | 0.39 | 0 | 4.43 | 12.9 | 26.87 | 0 | 5.43 | 9.52 | 10.47 |
| 04:26 | 2 | 10.6 | 79 | 38,460 | 0.39 | 0.26 | 4.43 | 13.28 | 29.1 | 0 | 7.14 | 10.92 | 12.01 |
| 04:25 | 2 | 10.6 | 79 | 38,460 | 0.39 | 0.67 | 4.4 | 15.89 | 28.75 | 0 | 3.71 | 8.1 | 8.91 |
| 04:24 | 2 | 10.6 | 78 | 38,460 | 0.39 | 0.72 | 4.36 | 15.44 | 29.51 | 0 | 6.29 | 9.54 | 10.49 |
| 04:23 | 2 | 10.6 | 79 | 38,460 | 0.4 | 0.96 | 4.29 | 16.44 | 32.39 | 0 | 7.14 | 10.92 | 12.01 |
| 04:22 | 2 | 10.7 | 79 | 38,460 | 0.38 | 0.55 | 4.27 | 15.4 | 28.69 | 0 | 6.29 | 10.22 | 11.24 |
| 04:21 | 2 | 10.7 | 79 | 38,460 | 0.4 | 0.34 | 4.21 | 15.21 | 31.07 | 0 | 6.29 | 10.91 | 12 |
| 04:20 | 2 | 10.7 | 79 | 38,460 | 0.39 | 0.7 | 4.09 | 13.74 | 27.35 | 0 | 5.43 | 8.81 | 9.69 |
| 04:19 | 2 | 10.7 | 78 | 38,460 | 0.39 | 0.73 | 4.14 | 18.64 | 37.71 | 0 | 6.29 | 10.27 | 11.29 |
| 04:18 | 2 | 10.7 | 79 | 38,460 | 0.39 | 0.06 | 4.22 | 15.17 | 27.1 | 0 | 6.29 | 9.53 | 10.48 |
| 04:17 | 2 | 10.7 | 78 | 38,460 | 0.4 | 0.7 | 4.21 | 13.33 | 27.35 | 0 | 6.29 | 10.25 | 11.27 |
| 04:16 | 2 | 10.7 | 77 | 38,460 | 0.4 | 1.34 | 4.25 | 16.11 | 32.68 | 0 | 7.14 | 11.77 | 12.94 |